Portada
METAR-TAF:

METAR-TAF

Aeroports :

Fukuoka, Japó

latitud: 33-35N, longitud: 130-27E, altitud: 9 m

Observació

L'informe es va fer fa 24 minuts, a les 10:00 UTC
Vent 4 kt amb direcció variable
Temperatura 13°C
Humitat 88%
Pressió 1024 hPa
Visibilitat 10 km o més
sense núvols per sota de 1500 mi sense presència de cumulonimbus.

METAR: RJFF 221000Z VRB04KT CAVOK 13/11 Q1024 NOSIG RMK A3024

Hora: 19:24 (10:24 UTC)

Pronòstic

L'informe es va fer fa 5 hores i 19 minuts, a les 05:05 UTC
Pronòstic vàlid del 22 a les 06 UTC al 23 a les 12 UTC
Vent 4 kt del Est
Visibilitat 10 km o més
Escasses núvols a una alçada de 3000 ft
Evolucionant progressivament
l' 23 a les 03 UTC al 23 a les 06 UTC
Vent 6 kt del Nord-Est
Evolucionant progressivament
l' 23 a les 09 UTC al 23 a les 12 UTC
Vent 5 kt del Sud-Est

TAF: RJFF 220505Z 2206/2312 08004KT 9999 FEW030 BECMG 2303/2306 05006KT BECMG 2309/2312 14005KT

Observacions i pronòstics meteorològics de més de 4000 aeroports (METAR i TAF).

Les estacions disponibles són els punts grocs i vermells al mapa.

Posi el ratolí al punt desitjat per veure el nom de l'estació.

Feu clic per veure les observacions i els pronòstics meteorològics.

Per canviar el mapa: feu clic els botons verds amb una creu de color negre per apropar; al botó verd amb un guió per allunyar la imatge; o en les fletxes verdes per a mapes adjacents.


METAR-TAF: